createdAt,value
2023-02-18T00:00:57.799Z,28.20
2023-02-18T00:03:25.378Z,33.03
2023-02-18T00:05:53.841Z,29.27
2023-02-18T00:08:21.701Z,31.92
2023-02-18T00:10:48.962Z,37.55
2023-02-18T00:13:16.111Z,31.80
2023-02-18T00:15:43.141Z,32.70
2023-02-18T00:18:11.767Z,32.25
2023-02-18T00:20:39.603Z,34.33
2023-02-18T00:23:08.018Z,29.88
2023-02-18T00:25:35.082Z,31.30
2023-02-18T00:28:02.326Z,33.75
2023-02-18T00:30:29.481Z,32.08
2023-02-18T00:32:56.419Z,31.92
2023-02-18T00:35:23.423Z,33.75
2023-02-18T00:37:51.668Z,31.83
2023-02-18T00:40:20.333Z,35.92
2023-02-18T00:42:47.254Z,30.65
2023-02-18T00:45:14.320Z,32.22
2023-02-18T00:47:41.325Z,36.85
2023-02-18T00:50:08.919Z,33.10
2023-02-18T00:52:35.885Z,36.05
2023-02-18T00:55:02.938Z,30.13
2023-02-18T00:57:31.409Z,36.35
2023-02-18T00:59:58.591Z,37.15
2023-02-18T01:02:25.646Z,36.37
2023-02-18T01:04:53.001Z,35.85
2023-02-18T01:07:19.949Z,34.00
2023-02-18T01:09:46.977Z,28.95
2023-02-18T01:12:14.250Z,31.17
2023-02-18T01:14:42.556Z,29.07
2023-02-18T01:17:09.621Z,31.75
2023-02-18T01:19:37.706Z,33.78
2023-02-18T01:22:06.858Z,30.20
2023-02-18T01:24:33.945Z,33.85
2023-02-18T01:27:00.908Z,31.23
2023-02-18T01:29:28.213Z,34.55
2023-02-18T01:31:56.722Z,31.63
2023-02-18T01:34:23.686Z,35.28
2023-02-18T01:36:50.624Z,31.08
2023-02-18T01:39:17.633Z,31.83
2023-02-18T01:41:44.744Z,36.38
2023-02-18T01:44:16.243Z,36.67
2023-02-18T01:46:43.449Z,35.67
2023-02-18T01:49:13.109Z,32.22
2023-02-18T01:51:41.962Z,32.33
2023-02-18T01:54:09.972Z,35.78
2023-02-18T01:56:39.011Z,35.03
2023-02-18T01:59:07.669Z,35.15
2023-02-18T02:01:36.190Z,37.33
2023-02-18T02:04:03.187Z,38.07
2023-02-18T02:06:31.897Z,40.60
2023-02-18T02:09:00.488Z,37.88
2023-02-18T02:11:42.554Z,37.72
2023-02-18T02:14:17.610Z,36.20
2023-02-18T02:16:50.473Z,36.50
2023-02-18T02:19:33.497Z,39.03
2023-02-18T02:22:11.640Z,38.10
2023-02-18T02:24:50.633Z,40.38
2023-02-18T02:27:23.409Z,40.83
2023-02-18T02:30:12.516Z,40.30
2023-02-18T02:32:46.098Z,40.50
2023-02-18T02:35:15.857Z,40.30
2023-02-18T02:37:45.810Z,41.28
2023-02-18T02:40:20.563Z,39.65
2023-02-18T02:42:53.928Z,40.40
2023-02-18T02:45:25.052Z,40.22
2023-02-18T02:47:55.756Z,41.20
2023-02-18T02:50:28.259Z,37.17
2023-02-18T02:53:02.478Z,41.88
2023-02-18T02:55:29.536Z,39.20
2023-02-18T02:57:56.959Z,39.90
2023-02-18T03:00:29.112Z,43.28
2023-02-18T03:03:06.376Z,44.30
2023-02-18T03:05:38.884Z,44.10
2023-02-18T03:08:14.173Z,41.73
2023-02-18T03:10:48.086Z,41.97
2023-02-18T03:13:18.605Z,42.45
2023-02-18T03:15:49.293Z,39.85
2023-02-18T03:18:18.523Z,43.33
2023-02-18T03:20:51.221Z,41.90
2023-02-18T03:23:20.214Z,44.25
2023-02-18T03:25:47.548Z,40.85
2023-02-18T03:28:16.197Z,38.60
2023-02-18T03:30:45.046Z,42.55
2023-02-18T03:33:14.503Z,46.07
2023-02-18T03:35:42.325Z,45.17
2023-02-18T03:38:14.130Z,42.50
2023-02-18T03:40:41.068Z,43.17
2023-02-18T03:43:08.093Z,44.88
2023-02-18T03:45:35.053Z,50.70
2023-02-18T03:48:02.148Z,44.20
2023-02-18T03:50:29.173Z,45.53
2023-02-18T03:52:56.251Z,43.75
2023-02-18T03:55:24.646Z,43.92
2023-02-18T03:57:52.118Z,48.87
2023-02-18T04:00:19.543Z,50.42
2023-02-18T04:02:46.587Z,45.28
2023-02-18T04:05:13.652Z,51.33
2023-02-18T04:07:40.676Z,46.25
2023-02-18T04:10:08.537Z,42.63
2023-02-18T04:12:37.044Z,44.50
2023-02-18T04:15:04.572Z,44.22
2023-02-18T04:17:32.773Z,45.67
2023-02-18T04:19:59.825Z,47.40
2023-02-18T04:22:26.719Z,46.57
2023-02-18T04:24:53.787Z,45.72
2023-02-18T04:27:20.941Z,47.55
2023-02-18T04:29:50.906Z,47.45
2023-02-18T04:32:17.931Z,46.47
2023-02-18T04:34:44.805Z,47.47
2023-02-18T04:37:11.711Z,46.65
2023-02-18T04:39:39.063Z,43.20
2023-02-18T04:42:09.141Z,45.33
2023-02-18T04:44:36.271Z,43.05
2023-02-18T04:47:04.958Z,47.67
2023-02-18T04:49:31.910Z,46.63
2023-02-18T04:51:58.910Z,44.88
2023-02-18T04:54:26.148Z,41.67
2023-02-18T04:56:53.138Z,50.15
2023-02-18T04:59:20.148Z,76.20
2023-02-18T05:01:47.282Z,56.38
2023-02-18T05:04:17.512Z,64.45
2023-02-18T05:06:44.712Z,55.13
2023-02-18T05:09:12.034Z,53.38
2023-02-18T05:11:39.032Z,53.60
2023-02-18T05:14:05.964Z,60.22
2023-02-18T05:16:32.958Z,56.72
2023-02-18T05:19:00.314Z,62.92
2023-02-18T05:21:29.087Z,59.42
2023-02-18T05:23:56.038Z,60.80
2023-02-18T05:26:23.063Z,52.65
2023-02-18T05:28:50.241Z,49.65
2023-02-18T05:31:17.509Z,52.55
2023-02-18T05:33:44.593Z,56.55
2023-02-18T05:36:11.642Z,51.30
2023-02-18T05:38:40.081Z,47.05
2023-02-18T05:41:07.129Z,51.58
2023-02-18T05:43:57.102Z,45.80
2023-02-18T05:46:24.116Z,47.72
2023-02-18T05:48:51.206Z,44.30
2023-02-18T05:51:18.271Z,48.50
2023-02-18T05:53:46.700Z,50.75
2023-02-18T05:56:13.752Z,46.08
2023-02-18T05:58:40.959Z,50.35
2023-02-18T06:01:08.071Z,57.17
2023-02-18T06:03:35.070Z,52.97
2023-02-18T06:06:02.204Z,56.55
2023-02-18T06:08:29.571Z,55.63
2023-02-18T06:10:58.458Z,54.40
2023-02-18T06:13:25.479Z,53.53
2023-02-18T06:15:52.735Z,55.40
2023-02-18T06:18:19.818Z,55.78
2023-02-18T06:20:47.008Z,56.53
2023-02-18T06:23:13.988Z,56.22
2023-02-18T06:25:41.097Z,55.93
2023-02-18T06:28:09.548Z,53.80
2023-02-18T06:30:36.627Z,54.80
2023-02-18T06:33:06.426Z,53.08
2023-02-18T06:35:33.420Z,53.67
2023-02-18T06:38:00.741Z,56.00
2023-02-18T06:40:27.736Z,59.20
2023-02-18T06:42:54.748Z,67.05
2023-02-18T06:45:23.255Z,67.18
2023-02-18T06:47:50.218Z,67.50
2023-02-18T06:50:17.352Z,70.10
2023-02-18T06:52:44.336Z,68.63
2023-02-18T06:55:11.370Z,66.05
2023-02-18T06:57:38.487Z,63.65
2023-02-18T07:00:06.192Z,65.55
2023-02-18T07:02:34.785Z,64.90
2023-02-18T07:05:01.834Z,57.05
2023-02-18T07:07:28.863Z,55.17
2023-02-18T07:09:55.965Z,59.63
2023-02-18T07:12:23.024Z,55.00
2023-02-18T07:14:50.023Z,60.67
2023-02-18T07:17:17.030Z,61.15
2023-02-18T07:19:45.616Z,62.40
2023-02-18T07:22:12.811Z,60.97
2023-02-18T07:24:39.927Z,59.63
2023-02-18T07:27:06.949Z,71.20
2023-02-18T07:29:34.167Z,71.53
2023-02-18T07:32:01.217Z,72.47
2023-02-18T07:34:28.267Z,72.60
2023-02-18T07:36:56.654Z,61.97
2023-02-18T07:39:23.537Z,66.00
2023-02-18T07:41:50.565Z,65.30
2023-02-18T07:44:17.585Z,62.50
2023-02-18T07:46:46.590Z,62.05
2023-02-18T07:49:14.356Z,64.90
2023-02-18T07:51:41.625Z,57.13
2023-02-18T07:54:10.010Z,62.17
2023-02-18T07:56:36.936Z,64.35
2023-02-18T07:59:03.929Z,66.18
2023-02-18T08:01:31.148Z,66.03
2023-02-18T08:03:58.246Z,68.87
2023-02-18T08:06:26.604Z,65.10
2023-02-18T08:08:53.690Z,75.95
2023-02-18T08:11:22.114Z,74.00
2023-02-18T08:13:49.303Z,82.18
2023-02-18T08:16:16.576Z,91.97
2023-02-18T08:18:43.773Z,89.82
2023-02-18T08:21:10.787Z,102.15
2023-02-18T08:23:37.710Z,109.63
2023-02-18T08:26:04.833Z,92.60
2023-02-18T08:28:33.267Z,86.00
2023-02-18T08:31:00.335Z,76.80
2023-02-18T08:33:27.768Z,72.93
2023-02-18T08:35:55.338Z,73.65
2023-02-18T08:38:22.790Z,70.47
2023-02-18T08:40:49.992Z,66.70
2023-02-18T08:43:18.117Z,70.38
2023-02-18T08:45:46.549Z,64.97
2023-02-18T08:48:19.800Z,66.20
2023-02-18T08:50:47.433Z,56.38
2023-02-18T08:53:14.960Z,60.67
2023-02-18T08:55:41.936Z,60.20
2023-02-18T08:58:09.206Z,59.20
2023-02-18T09:00:38.233Z,63.95
2023-02-18T09:03:06.792Z,58.47
2023-02-18T09:05:33.783Z,61.00
2023-02-18T09:08:00.785Z,61.28
2023-02-18T09:10:27.734Z,60.88
2023-02-18T09:12:54.800Z,67.55
2023-02-18T09:15:21.993Z,64.00
2023-02-18T09:17:49.060Z,62.53
2023-02-18T09:20:17.643Z,64.85
2023-02-18T09:22:44.596Z,58.08
2023-02-18T09:25:11.506Z,58.13
2023-02-18T09:27:38.671Z,57.88
2023-02-18T09:30:06.502Z,60.20
2023-02-18T09:32:35.200Z,63.95
2023-02-18T09:35:02.888Z,59.83
2023-02-18T09:37:31.266Z,60.63
2023-02-18T09:39:58.226Z,56.83
2023-02-18T09:42:31.597Z,57.40
2023-02-18T09:45:00.232Z,56.40
2023-02-18T09:47:30.919Z,48.83
2023-02-18T09:49:59.113Z,52.75
2023-02-18T09:52:29.845Z,51.38
2023-02-18T09:54:58.395Z,49.37
2023-02-18T09:57:28.931Z,44.40
2023-02-18T10:00:00.195Z,43.15
2023-02-18T10:02:28.382Z,41.33
2023-02-18T10:04:56.448Z,46.97
2023-02-18T10:07:28.361Z,44.93
2023-02-18T10:09:57.248Z,44.20
2023-02-18T10:12:26.508Z,49.15
2023-02-18T10:14:54.964Z,45.60
2023-02-18T10:17:23.419Z,45.03
2023-02-18T10:19:52.298Z,49.13
2023-02-18T10:22:20.723Z,51.00
2023-02-18T10:24:50.284Z,45.95
2023-02-18T10:27:19.255Z,43.95
2023-02-18T10:29:48.515Z,46.58
2023-02-18T10:32:19.752Z,41.77
2023-02-18T10:34:49.767Z,43.00
2023-02-18T10:37:23.971Z,45.50
2023-02-18T10:39:56.808Z,44.13
2023-02-18T10:42:30.892Z,38.65
2023-02-18T10:45:03.702Z,38.07
2023-02-18T10:47:36.231Z,40.28
2023-02-18T10:50:04.843Z,41.10
2023-02-18T10:52:35.522Z,40.40
2023-02-18T10:55:07.262Z,37.03
2023-02-18T10:57:34.578Z,36.37
2023-02-18T11:00:11.040Z,37.47
2023-02-18T11:02:38.378Z,37.60
2023-02-18T11:05:07.566Z,40.45
2023-02-18T11:07:35.393Z,40.10
2023-02-18T11:10:09.038Z,37.50
2023-02-18T11:12:41.149Z,38.90
2023-02-18T11:15:17.829Z,39.35
2023-02-18T11:17:47.023Z,38.17
2023-02-18T11:20:25.342Z,37.22
2023-02-18T11:22:52.452Z,36.97
2023-02-18T11:25:20.511Z,42.08
2023-02-18T11:27:50.691Z,39.28
2023-02-18T11:30:21.766Z,34.10
2023-02-18T11:32:49.625Z,37.53
2023-02-18T11:35:18.906Z,36.53
2023-02-18T11:37:46.544Z,41.65
2023-02-18T11:40:20.451Z,39.25
2023-02-18T11:42:47.436Z,37.17
2023-02-18T11:45:28.052Z,37.55
2023-02-18T11:47:59.384Z,36.20
2023-02-18T11:50:26.412Z,35.13
2023-02-18T11:52:54.884Z,36.22
2023-02-18T11:55:22.817Z,35.30
2023-02-18T11:57:51.465Z,35.08
2023-02-18T12:00:23.823Z,38.60
2023-02-18T12:02:53.128Z,34.47
2023-02-18T12:05:22.662Z,37.85
2023-02-18T12:07:50.659Z,35.75
2023-02-18T12:10:21.748Z,33.55
2023-02-18T12:12:50.452Z,35.93
2023-02-18T12:15:19.261Z,33.20
2023-02-18T12:17:55.465Z,33.33
2023-02-18T12:20:37.678Z,35.47
2023-02-18T12:23:08.996Z,34.50
2023-02-18T12:25:40.467Z,35.27
2023-02-18T12:28:18.294Z,34.58
2023-02-18T12:30:58.420Z,35.05
2023-02-18T12:33:28.174Z,35.05
2023-02-18T12:36:02.113Z,38.00
2023-02-18T12:38:47.350Z,39.00
2023-02-18T12:41:32.357Z,37.92
2023-02-18T12:44:04.256Z,44.45
2023-02-18T12:46:41.803Z,41.63
2023-02-18T12:49:17.505Z,44.28
2023-02-18T12:51:54.015Z,44.20
2023-02-18T12:54:26.922Z,47.13
2023-02-18T12:57:07.321Z,42.25
2023-02-18T12:59:42.036Z,49.25
2023-02-18T13:02:18.497Z,44.65
2023-02-18T13:04:51.345Z,46.50
2023-02-18T13:07:28.593Z,48.83
2023-02-18T13:10:01.588Z,44.67
2023-02-18T13:12:31.118Z,41.78
2023-02-18T13:15:00.765Z,47.15
2023-02-18T13:17:29.978Z,48.60
2023-02-18T13:20:01.522Z,49.05
2023-02-18T13:22:30.578Z,53.08
2023-02-18T13:24:59.123Z,48.22
2023-02-18T13:27:28.641Z,49.72
2023-02-18T13:30:16.191Z,47.97
2023-02-18T13:32:48.325Z,50.70
2023-02-18T13:35:17.931Z,53.10
2023-02-18T13:37:50.377Z,53.88
2023-02-18T13:40:19.165Z,51.33
2023-02-18T13:42:46.424Z,50.87
2023-02-18T13:45:24.525Z,53.22
2023-02-18T13:47:52.246Z,50.05
2023-02-18T13:50:28.384Z,51.08
2023-02-18T13:53:13.317Z,55.65
2023-02-18T13:55:42.999Z,55.87
2023-02-18T13:58:14.085Z,53.72
2023-02-18T14:00:41.838Z,58.95
2023-02-18T14:03:20.755Z,62.78
2023-02-18T14:05:47.738Z,55.58
2023-02-18T14:08:15.479Z,55.13
2023-02-18T14:11:03.915Z,55.90
2023-02-18T14:13:40.470Z,63.53
2023-02-18T14:16:08.484Z,61.03
2023-02-18T14:18:50.325Z,58.58
2023-02-18T14:21:22.527Z,61.77
2023-02-18T14:23:57.234Z,64.10
2023-02-18T14:26:28.958Z,60.00
2023-02-18T14:28:57.503Z,60.33
2023-02-18T14:31:30.583Z,61.30
2023-02-18T14:34:22.123Z,64.33
2023-02-18T14:36:53.671Z,64.05
2023-02-18T14:39:30.383Z,70.75
2023-02-18T14:42:03.630Z,68.75
2023-02-18T14:44:36.466Z,65.65
2023-02-18T14:47:09.388Z,70.77
2023-02-18T14:49:41.913Z,74.13
2023-02-18T14:52:12.801Z,73.47
2023-02-18T14:54:40.865Z,71.95
2023-02-18T14:57:13.132Z,72.45
2023-02-18T14:59:41.153Z,64.80
2023-02-18T15:02:22.164Z,66.43
2023-02-18T15:04:50.728Z,60.97
2023-02-18T15:07:19.094Z,62.33
2023-02-18T15:09:47.594Z,64.32
2023-02-18T15:12:18.492Z,66.50
2023-02-18T15:14:46.394Z,68.03
2023-02-18T15:17:15.348Z,67.35
2023-02-18T15:19:45.010Z,62.50
2023-02-18T15:22:16.080Z,64.35
2023-02-18T15:24:43.806Z,67.00
2023-02-18T15:27:12.510Z,71.57
2023-02-18T15:29:41.098Z,76.15
2023-02-18T15:32:15.699Z,67.53
2023-02-18T15:34:44.835Z,62.95
2023-02-18T15:37:14.109Z,65.63
2023-02-18T15:39:42.406Z,69.50
2023-02-18T15:42:14.901Z,63.25
2023-02-18T15:44:46.859Z,67.05
2023-02-18T15:47:14.796Z,64.65
2023-02-18T15:49:45.533Z,60.77
2023-02-18T15:52:12.692Z,61.03
2023-02-18T15:54:41.157Z,61.67
2023-02-18T15:57:09.861Z,65.07
2023-02-18T15:59:43.024Z,60.72
2023-02-18T16:02:16.678Z,65.37
2023-02-18T16:04:47.596Z,62.33
2023-02-18T16:07:22.327Z,59.22
2023-02-18T16:09:57.745Z,61.38
2023-02-18T16:12:28.092Z,54.83
2023-02-18T16:14:55.687Z,56.47
2023-02-18T16:17:26.510Z,55.67
2023-02-18T16:20:04.462Z,61.67
2023-02-18T16:22:34.813Z,53.03
2023-02-18T16:25:06.912Z,52.08
2023-02-18T16:27:35.371Z,58.93
2023-02-18T16:30:03.990Z,66.95
2023-02-18T16:32:32.832Z,64.80
2023-02-18T16:34:59.726Z,58.05
2023-02-18T16:37:38.703Z,62.78
2023-02-18T16:40:17.208Z,55.63
2023-02-18T16:42:44.238Z,53.35
2023-02-18T16:45:12.068Z,56.58
2023-02-18T16:47:40.532Z,56.97
2023-02-18T16:50:14.092Z,51.83
2023-02-18T16:52:41.428Z,51.73
2023-02-18T16:55:15.876Z,53.72
2023-02-18T16:57:43.034Z,52.42
2023-02-18T17:00:10.258Z,56.13
2023-02-18T17:02:44.824Z,59.53
2023-02-18T17:05:26.148Z,62.03
2023-02-18T17:07:54.441Z,51.95
2023-02-18T17:10:21.656Z,49.83
2023-02-18T17:12:48.760Z,52.90
2023-02-18T17:15:23.738Z,48.70
2023-02-18T17:17:52.148Z,54.27
2023-02-18T17:20:20.118Z,48.97
2023-02-18T17:22:47.299Z,54.20
2023-02-18T17:25:17.669Z,49.50
2023-02-18T17:27:46.414Z,53.33
2023-02-18T17:30:15.148Z,147.70
2023-02-18T17:35:45.731Z,76.00
2023-02-18T17:38:13.106Z,82.05
2023-02-18T17:40:40.192Z,68.88
2023-02-18T17:43:10.685Z,65.90
2023-02-18T17:45:40.483Z,67.65
2023-02-18T17:48:07.646Z,72.85
2023-02-18T17:50:34.785Z,77.00
2023-02-18T17:53:03.436Z,69.28
2023-02-18T17:55:31.573Z,90.33
2023-02-18T17:57:59.078Z,83.60
2023-02-18T18:00:27.185Z,82.18
2023-02-18T18:02:54.429Z,83.25
2023-02-18T18:05:22.321Z,77.22
2023-02-18T18:07:50.356Z,78.50
2023-02-18T18:10:22.078Z,68.72
2023-02-18T18:12:49.649Z,63.78
2023-02-18T18:15:20.467Z,73.00
2023-02-18T18:17:47.483Z,65.93
2023-02-18T18:20:14.860Z,100.33
2023-02-18T18:22:42.430Z,51.08
2023-02-18T18:25:16.110Z,49.75
2023-02-18T18:27:44.799Z,48.17
2023-02-18T18:30:13.278Z,51.60
2023-02-18T18:32:41.244Z,48.73
2023-02-18T18:35:17.730Z,50.90
2023-02-18T18:37:45.311Z,100.18
2023-02-18T18:40:12.481Z,133.55
2023-02-18T18:42:39.673Z,46.75
2023-02-18T18:45:13.920Z,49.77
2023-02-18T18:47:41.094Z,50.72
2023-02-18T18:50:08.689Z,92.50
2023-02-18T18:52:36.243Z,56.85
2023-02-18T18:55:03.523Z,46.60
2023-02-18T18:57:30.912Z,45.27
2023-02-18T18:59:59.196Z,44.13
2023-02-18T19:02:27.853Z,104.60
2023-02-18T19:04:55.145Z,55.25
2023-02-18T19:07:22.113Z,50.97
2023-02-18T19:09:49.276Z,40.93
2023-02-18T19:12:17.742Z,43.78
2023-02-18T19:14:44.969Z,49.65
2023-02-18T19:17:12.196Z,48.45
2023-02-18T19:19:40.837Z,55.25
2023-02-18T19:22:08.344Z,60.97
2023-02-18T19:24:35.773Z,58.10
2023-02-18T19:27:02.938Z,56.60
2023-02-18T19:29:30.172Z,58.95
2023-02-18T19:31:57.456Z,52.35
2023-02-18T19:34:24.921Z,54.60
2023-02-18T19:36:54.114Z,56.38
2023-02-18T19:39:21.281Z,51.50
2023-02-18T19:41:49.612Z,47.72
2023-02-18T19:44:16.904Z,52.92
2023-02-18T19:46:45.212Z,52.97
2023-02-18T19:49:12.734Z,50.67
2023-02-18T19:51:39.924Z,52.45
2023-02-18T19:54:08.812Z,56.20
2023-02-18T19:56:35.972Z,59.45
2023-02-18T19:59:03.365Z,59.13
2023-02-18T20:01:31.686Z,59.60
2023-02-18T20:03:59.506Z,69.15
2023-02-18T20:06:26.866Z,65.60
2023-02-18T20:08:55.214Z,63.03
2023-02-18T20:11:23.881Z,65.63
2023-02-18T20:13:51.062Z,64.53
2023-02-18T20:16:18.264Z,94.22
2023-02-18T20:18:45.470Z,67.05
2023-02-18T20:21:13.189Z,138.80
2023-02-18T20:23:40.706Z,146.80
2023-02-18T20:26:08.249Z,84.50
2023-02-18T20:28:37.133Z,100.63
2023-02-18T20:31:05.498Z,111.93
2023-02-18T20:33:32.568Z,117.15
2023-02-18T20:36:00.161Z,97.70
2023-02-18T20:38:28.005Z,95.85
2023-02-18T20:40:55.489Z,90.82
2023-02-18T20:43:22.752Z,87.35
2023-02-18T20:45:51.271Z,82.82
2023-02-18T20:48:18.573Z,85.00
2023-02-18T20:50:45.962Z,84.40
2023-02-18T20:53:13.147Z,86.55
2023-02-18T20:55:45.887Z,78.70
2023-02-18T20:58:14.918Z,80.28
2023-02-18T21:00:42.176Z,73.50
2023-02-18T21:03:11.291Z,71.00
2023-02-18T21:05:38.430Z,74.85
2023-02-18T21:08:05.522Z,72.40
2023-02-18T21:10:32.987Z,73.15
2023-02-18T21:13:00.162Z,67.57
2023-02-18T21:15:28.405Z,67.47
2023-02-18T21:17:55.704Z,69.95
2023-02-18T21:20:24.268Z,66.57
2023-02-18T21:22:51.299Z,71.00
2023-02-18T21:25:18.295Z,64.03
2023-02-18T21:27:45.373Z,68.15
2023-02-18T21:30:12.859Z,63.97
2023-02-18T21:32:40.070Z,68.90
2023-02-18T21:35:07.650Z,75.60
2023-02-18T21:37:36.290Z,78.17
2023-02-18T21:40:04.589Z,79.63
2023-02-18T21:42:34.712Z,82.10
2023-02-18T21:45:03.073Z,83.97
2023-02-18T21:47:31.397Z,79.18
2023-02-18T21:49:58.984Z,81.23
2023-02-18T21:52:26.458Z,77.40
2023-02-18T21:54:55.080Z,71.22
2023-02-18T21:57:22.228Z,73.55
2023-02-18T21:59:49.419Z,75.90
2023-02-18T22:02:17.799Z,66.30
2023-02-18T22:04:45.033Z,64.22
2023-02-18T22:07:12.248Z,78.80
2023-02-18T22:09:39.243Z,85.55
2023-02-18T22:12:08.090Z,100.05
2023-02-18T22:14:35.035Z,88.03
2023-02-18T22:17:02.118Z,86.75
2023-02-18T22:19:29.380Z,81.65
2023-02-18T22:21:56.333Z,85.85
2023-02-18T22:24:23.265Z,82.60
2023-02-18T22:26:50.642Z,87.40
2023-02-18T22:29:20.076Z,79.18
2023-02-18T22:31:47.501Z,77.22
2023-02-18T22:34:14.544Z,77.55
2023-02-18T22:36:41.643Z,74.85
2023-02-18T22:39:09.123Z,74.67
2023-02-18T22:41:36.892Z,103.25
2023-02-18T22:44:05.298Z,117.72
2023-02-18T22:46:34.884Z,93.97
2023-02-18T22:49:02.616Z,82.60
2023-02-18T22:51:31.405Z,81.23
2023-02-18T22:53:59.357Z,88.00
2023-02-18T22:56:27.668Z,104.80
2023-02-18T22:58:55.435Z,104.88
2023-02-18T23:01:24.133Z,96.05
2023-02-18T23:03:52.976Z,79.00
2023-02-18T23:06:20.471Z,70.15
2023-02-18T23:08:48.063Z,73.38
2023-02-18T23:11:16.228Z,74.97
2023-02-18T23:13:43.417Z,72.65
2023-02-18T23:16:12.048Z,65.57
2023-02-18T23:18:39.373Z,67.55
2023-02-18T23:21:18.841Z,72.50
2023-02-18T23:23:46.200Z,69.20
2023-02-18T23:26:13.252Z,69.50
2023-02-18T23:28:49.167Z,65.07
2023-02-18T23:31:17.254Z,60.35
2023-02-18T23:33:44.567Z,67.50
2023-02-18T23:36:14.362Z,62.47
2023-02-18T23:38:41.485Z,62.25
2023-02-18T23:41:08.937Z,59.83
2023-02-18T23:43:36.160Z,60.70
2023-02-18T23:46:03.444Z,55.72
2023-02-18T23:48:30.473Z,55.13
2023-02-18T23:51:00.831Z,54.53
2023-02-18T23:53:29.974Z,56.27
2023-02-18T23:56:01.277Z,50.83
2023-02-18T23:58:28.413Z,52.28
